Time;durP1;ratioP1;P1;durP2;ratioP2;P2;SDS_P1;SDS_P2;PMS_P1;PMS_P2;Temp;Humidity;BMP_temperature;BMP_pressure;BME280_temperature;BME280_humidity;BME280_pressure;Samples;Min_cycle;Max_cycle;Signal;HPM_P1;HPM_P2
2021/08/26 00:07:28;;;;;;;2.97;2.53;;;;;;;14.54;100.00;100050.31;2614894;36;20026;-57
2021/08/26 00:09:55;;;;;;;4.20;2.63;;;;;;;14.46;100.00;100043.41;2615216;31;20030;-56
2021/08/26 00:12:22;;;;;;;5.47;3.28;;;;;;;14.57;100.00;100040.88;2614957;36;20042;-54
2021/08/26 00:14:50;;;;;;;5.43;2.75;;;;;;;14.47;100.00;100040.00;2615075;36;20034;-55
2021/08/26 00:17:17;;;;;;;3.72;2.35;;;;;;;14.44;100.00;100034.84;2614971;31;20034;-59
2021/08/26 00:19:44;;;;;;;4.05;2.75;;;;;;;14.68;100.00;100030.56;2614895;31;20061;-56
2021/08/26 00:22:11;;;;;;;4.82;2.60;;;;;;;14.54;100.00;100037.44;2615482;31;20038;-57
2021/08/26 00:24:38;;;;;;;3.83;2.35;;;;;;;14.59;100.00;100021.13;2614749;36;20065;-51
2021/08/26 00:27:05;;;;;;;6.57;2.70;;;;;;;14.60;100.00;100017.66;2614745;36;20034;-55
2021/08/26 00:29:33;;;;;;;4.97;2.92;;;;;;;14.41;100.00;100013.38;2615332;31;20428;-55
2021/08/26 00:32:00;;;;;;;4.97;2.75;;;;;;;14.29;100.00;100009.09;2614797;36;20030;-50
2021/08/26 00:34:27;;;;;;;4.15;2.88;;;;;;;14.30;100.00;100008.25;2615459;31;20038;-54
2021/08/26 00:36:54;;;;;;;7.32;3.17;;;;;;;14.30;100.00;100008.25;2614754;36;20042;-54
2021/08/26 00:39:21;;;;;;;4.60;2.97;;;;;;;14.20;100.00;100009.09;2615548;31;20575;-54
2021/08/26 00:41:49;;;;;;;5.95;3.38;;;;;;;14.32;100.00;100005.66;2615413;31;20023;-52
2021/08/26 00:44:17;;;;;;;7.82;3.78;;;;;;;14.46;100.00;100003.91;2614790;36;20648;-55
2021/08/26 00:46:46;;;;;;;8.15;3.10;;;;;;;14.59;100.00;100003.06;2615332;31;20030;-52
2021/08/26 00:49:15;;;;;;;8.70;3.40;;;;;;;14.50;100.00;100003.94;2615196;31;20030;-53
2021/08/26 00:51:43;;;;;;;7.63;3.20;;;;;;;14.49;100.00;99996.22;2614903;36;20034;-53
2021/08/26 00:54:11;;;;;;;8.70;3.80;;;;;;;14.41;100.00;100006.50;2614756;36;20042;-54
2021/08/26 00:56:39;;;;;;;6.80;3.53;;;;;;;14.56;100.00;99997.94;2614644;36;20030;-55
2021/08/26 00:59:07;;;;;;;8.85;3.30;;;;;;;14.44;100.00;99997.94;2614456;36;20034;-53
2021/08/26 01:01:38;;;;;;;6.50;3.28;;;;;;;14.58;100.00;99996.22;2614994;31;20030;-53
2021/08/26 01:04:16;;;;;;;5.38;3.33;;;;;;;14.45;100.00;99997.06;2614708;36;20058;-53
2021/08/26 01:06:53;;;;;;;8.95;4.20;;;;;;;14.62;100.00;99991.91;2615076;31;20128;-54
2021/08/26 01:09:22;;;;;;;7.82;3.55;;;;;;;14.60;100.00;99994.47;2614549;36;20035;-53
2021/08/26 01:11:50;;;;;;;7.65;4.40;;;;;;;14.45;100.00;99992.75;2614569;36;20035;-52
2021/08/26 01:14:18;;;;;;;11.43;4.57;;;;;;;14.50;100.00;99990.22;2615321;31;20077;-56
2021/08/26 01:16:45;;;;;;;8.48;3.42;;;;;;;14.61;100.00;99996.22;2615005;36;20033;-54
2021/08/26 01:19:12;;;;;;;8.65;4.40;;;;;;;14.46;100.00;99994.47;2615212;36;20049;-57
2021/08/26 01:21:39;;;;;;;9.73;4.40;;;;;;;14.57;100.00;99991.06;2615303;36;20547;-57
2021/08/26 01:24:14;;;;;;;8.60;4.10;;;;;;;14.36;100.00;99995.34;2616061;31;20034;-58
2021/08/26 01:26:52;;;;;;;9.38;4.40;;;;;;;14.52;100.00;99991.94;2615967;31;20077;-56
2021/08/26 01:29:21;;;;;;;7.15;4.53;;;;;;;14.63;100.00;99997.06;2615312;36;20577;-54
2021/08/26 01:31:49;;;;;;;10.32;4.78;;;;;;;14.65;100.00;99981.59;2616446;31;20050;-53
2021/08/26 01:34:19;;;;;;;8.07;4.63;;;;;;;14.76;100.00;99985.00;2615309;36;20729;-57
2021/08/26 01:36:46;;;;;;;8.57;4.05;;;;;;;14.62;100.00;99986.78;2615767;31;20037;-57
2021/08/26 01:39:15;;;;;;;6.78;4.30;;;;;;;14.52;100.00;99989.38;2615578;36;20507;-56
2021/08/26 01:41:49;;;;;;;9.23;4.18;;;;;;;14.49;100.00;99981.63;2615482;36;20074;-55
2021/08/26 01:44:22;;;;;;;7.20;4.97;;;;;;;14.35;100.00;99985.91;2615965;31;20042;-54
2021/08/26 01:46:54;;;;;;;12.70;4.75;;;;;;;14.58;100.00;99988.50;2615184;36;20031;-55
2021/08/26 01:49:21;;;;;;;10.23;4.32;;;;;;;14.64;100.00;99987.59;2615441;31;20030;-56
2021/08/26 01:51:48;;;;;;;9.45;4.85;;;;;;;14.59;100.00;99989.34;2615425;31;20120;-55
2021/08/26 01:54:15;;;;;;;9.55;4.57;;;;;;;14.66;100.00;99986.75;2615367;36;20030;-53
2021/08/26 01:56:42;;;;;;;8.70;4.63;;;;;;;14.68;100.00;99987.59;2615691;31;20454;-56
2021/08/26 01:59:09;;;;;;;7.15;4.28;;;;;;;14.64;100.00;99985.03;2615264;31;20057;-56
2021/08/26 02:01:36;;;;;;;12.60;4.00;;;;;;;14.60;100.00;99976.44;2615328;36;20030;-55
2021/08/26 02:04:04;;;;;;;11.80;5.35;;;;;;;14.60;100.00;99973.00;2616237;31;20035;-55
2021/08/26 02:06:31;;;;;;;9.30;4.28;;;;;;;14.61;100.00;99969.59;2615636;36;20452;-54
2021/08/26 02:08:58;;;;;;;10.52;4.85;;;;;;;14.37;100.00;99961.00;2616164;31;20038;-59
2021/08/26 02:11:25;;;;;;;9.63;4.95;;;;;;;14.25;100.00;99967.03;2616811;31;20559;-55
2021/08/26 02:13:52;;;;;;;10.15;5.00;;;;;;;14.55;100.00;99964.44;2616433;31;20437;-56
2021/08/26 02:16:20;;;;;;;11.27;5.15;;;;;;;14.37;100.00;99960.16;2615692;31;20026;-58
2021/08/26 02:18:47;;;;;;;11.60;5.82;;;;;;;14.37;100.00;99955.00;2615693;31;20034;-58
2021/08/26 02:21:14;;;;;;;14.55;5.28;;;;;;;14.50;100.00;99960.16;2615277;36;20030;-55
2021/08/26 02:23:41;;;;;;;14.13;5.55;;;;;;;14.39;100.00;99958.44;2615813;36;20462;-58
2021/08/26 02:26:08;;;;;;;10.38;5.03;;;;;;;14.36;100.00;99956.72;2615125;36;20038;-58
2021/08/26 02:28:35;;;;;;;11.48;4.70;;;;;;;14.62;100.00;99958.44;2615242;31;20570;-56
2021/08/26 02:31:02;;;;;;;10.75;5.35;;;;;;;14.55;100.00;99956.72;2615394;31;20035;-58
2021/08/26 02:33:29;;;;;;;16.92;6.03;;;;;;;14.33;100.00;99948.13;2615321;36;20439;-60
2021/08/26 02:35:56;;;;;;;12.05;4.85;;;;;;;14.55;100.00;99946.41;2615983;31;20034;-57
2021/08/26 02:38:24;;;;;;;10.57;5.18;;;;;;;14.50;100.00;99951.56;2616861;36;20030;-59
2021/08/26 02:40:51;;;;;;;19.75;5.40;;;;;;;14.33;100.00;99950.69;2618188;31;20062;-60
2021/08/26 02:43:18;;;;;;;6.78;4.88;;;;;;;14.39;100.00;99949.00;2616319;31;20577;-59
2021/08/26 02:45:45;;;;;;;11.38;5.90;;;;;;;14.32;100.00;99943.84;2615192;36;20034;-57
2021/08/26 02:48:12;;;;;;;13.15;5.70;;;;;;;14.46;100.00;99939.53;2614842;36;20031;-56
2021/08/26 02:50:39;;;;;;;10.10;5.13;;;;;;;14.59;100.00;99943.81;2615117;36;20037;-53
2021/08/26 02:53:06;;;;;;;12.50;7.45;;;;;;;14.33;100.00;99940.41;2615085;36;20037;-59
2021/08/26 02:55:33;;;;;;;17.35;5.95;;;;;;;14.37;100.00;99935.25;2615725;31;20034;-54
2021/08/26 02:58:00;;;;;;;15.20;6.63;;;;;;;14.26;100.00;99942.13;2617383;31;20525;-60
2021/08/26 03:00:28;;;;;;;12.60;5.80;;;;;;;14.13;100.00;99943.00;2615051;36;20035;-57
2021/08/26 03:02:55;;;;;;;16.52;6.13;;;;;;;14.23;100.00;99937.84;2616019;31;20038;-54
2021/08/26 03:05:22;;;;;;;17.17;6.45;;;;;;;14.14;100.00;99935.31;2615397;31;20041;-58
2021/08/26 03:07:49;;;;;;;13.25;6.35;;;;;;;14.27;100.00;99939.56;2615344;31;20030;-55
2021/08/26 03:10:16;;;;;;;15.07;6.00;;;;;;;14.25;100.00;99943.84;2615105;36;20650;-55
2021/08/26 03:12:44;;;;;;;17.55;6.47;;;;;;;14.16;100.00;99937.88;2615509;31;20474;-56
2021/08/26 03:15:11;;;;;;;15.73;6.65;;;;;;;14.17;100.00;99937.00;2615221;31;20026;-56
2021/08/26 03:17:38;;;;;;;17.85;6.22;;;;;;;14.45;100.00;99942.97;2614910;36;20026;-52
2021/08/26 03:20:06;;;;;;;16.17;5.88;;;;;;;14.41;100.00;99936.94;2615509;31;20034;-53
2021/08/26 03:22:33;;;;;;;12.65;6.05;;;;;;;14.45;100.00;99937.81;2615573;31;20547;-56
2021/08/26 03:25:00;;;;;;;17.00;6.63;;;;;;;14.35;100.00;99936.97;2615292;31;20428;-54
2021/08/26 03:27:27;;;;;;;14.23;5.82;;;;;;;14.35;100.00;99936.13;2615764;31;20030;-55
2021/08/26 03:29:54;;;;;;;21.60;6.78;;;;;;;14.19;100.00;99930.13;2615052;36;20038;-52
2021/08/26 03:32:22;;;;;;;19.40;6.10;;;;;;;14.36;100.00;99937.81;2616481;31;20030;-58
2021/08/26 03:34:49;;;;;;;19.13;7.53;;;;;;;14.25;100.00;99941.28;2615747;31;20038;-59
2021/08/26 03:37:16;;;;;;;13.23;5.80;;;;;;;14.39;100.00;99942.97;2615634;31;20041;-55
2021/08/26 03:39:43;;;;;;;17.02;7.13;;;;;;;14.23;100.00;99939.56;2615119;36;20439;-58
2021/08/26 03:42:10;;;;;;;25.73;7.78;;;;;;;14.17;100.00;99931.84;2614809;36;20057;-56
2021/08/26 03:44:37;;;;;;;21.25;8.13;;;;;;;14.09;100.00;99933.56;2615228;36;20034;-58
2021/08/26 03:47:04;;;;;;;26.98;8.93;;;;;;;14.04;100.00;99935.28;2616070;31;20034;-58
2021/08/26 03:49:31;;;;;;;22.55;8.57;;;;;;;14.15;100.00;99926.72;2616279;31;20034;-59
2021/08/26 03:52:03;;;;;;;27.27;7.68;;;;;;;14.04;100.00;99930.16;2614538;31;20077;-56
2021/08/26 03:54:33;;;;;;;23.88;8.38;;;;;;;14.15;100.00;99931.00;2615222;31;20126;-60
2021/08/26 03:57:03;;;;;;;18.45;8.52;;;;;;;14.10;100.00;99931.00;2614795;36;20033;-57
2021/08/26 03:59:31;;;;;;;24.92;8.52;;;;;;;13.81;100.00;99927.56;2615982;31;20633;-60
2021/08/26 04:02:00;;;;;;;20.40;7.93;;;;;;;14.01;100.00;99931.88;2615243;31;20041;-59
2021/08/26 04:04:30;;;;;;;19.08;8.50;;;;;;;13.97;100.00;99937.88;2614668;36;20031;-60
2021/08/26 04:06:59;;;;;;;27.95;9.18;;;;;;;13.85;100.00;99931.88;2615118;31;20038;-60
2021/08/26 04:09:27;;;;;;;20.45;9.35;;;;;;;14.00;100.00;99937.00;2614564;36;20610;-59
2021/08/26 04:11:54;;;;;;;23.48;9.10;;;;;;;13.97;100.00;99937.88;2615113;31;20027;-56
2021/08/26 04:14:22;;;;;;;19.40;9.48;;;;;;;13.87;100.00;99928.44;2614439;36;20030;-59
2021/08/26 04:16:49;;;;;;;17.48;8.95;;;;;;;14.01;100.00;99925.88;2614862;31;20056;-59
2021/08/26 04:19:16;;;;;;;17.73;9.02;;;;;;;14.06;100.00;99925.88;2614197;36;20605;-58
2021/08/26 04:21:43;;;;;;;24.35;9.38;;;;;;;14.01;100.00;99936.16;2613855;36;20026;-55
2021/08/26 04:24:10;;;;;;;26.73;9.77;;;;;;;13.93;100.00;99931.00;2614000;36;20440;-56
2021/08/26 04:26:37;;;;;;;24.08;9.75;;;;;;;14.01;100.00;99925.88;2614355;31;20081;-59
2021/08/26 04:29:04;;;;;;;19.83;8.57;;;;;;;14.15;100.00;99928.44;2615378;31;20034;-58
2021/08/26 04:31:31;;;;;;;18.58;9.10;;;;;;;13.97;100.00;99931.88;2615367;31;20547;-55
2021/08/26 04:33:59;;;;;;;23.13;9.07;;;;;;;14.08;100.00;99930.13;2615323;31;20073;-56
2021/08/26 04:36:26;;;;;;;23.08;9.10;;;;;;;14.02;100.00;99931.00;2614682;36;20065;-53
2021/08/26 04:38:53;;;;;;;27.88;10.45;;;;;;;13.92;100.00;99926.72;2615045;31;20281;-57
2021/08/26 04:41:20;;;;;;;21.85;9.82;;;;;;;14.10;100.00;99928.44;2615272;31;20053;-54
2021/08/26 04:43:47;;;;;;;21.00;8.52;;;;;;;14.08;100.00;99922.41;2615679;31;20038;-59
2021/08/26 04:46:14;;;;;;;26.38;8.68;;;;;;;13.90;100.00;99927.56;2615669;31;20031;-54
2021/08/26 04:48:42;;;;;;;26.02;9.43;;;;;;;13.97;100.00;99922.44;2614516;36;20034;-55
2021/08/26 04:51:09;;;;;;;26.35;9.75;;;;;;;13.93;100.00;99931.00;2614854;31;20034;-53
2021/08/26 04:53:36;;;;;;;29.58;10.25;;;;;;;13.99;100.00;99928.44;2621657;31;20460;-53
2021/08/26 04:56:04;;;;;;;28.48;9.93;;;;;;;13.87;100.00;99925.88;2614287;31;20030;-57
2021/08/26 04:58:31;;;;;;;22.65;9.27;;;;;;;13.96;100.00;99919.88;2615047;31;20450;-57
2021/08/26 05:00:59;;;;;;;29.83;9.90;;;;;;;13.96;100.00;99927.59;2615446;31;20664;-56
2021/08/26 05:03:27;;;;;;;25.88;8.88;;;;;;;14.05;100.00;99932.75;2615538;31;20446;-56
2021/08/26 05:05:58;;;;;;;20.83;8.20;;;;;;;14.10;100.00;99927.59;2614890;36;20438;-57
2021/08/26 05:08:25;;;;;;;21.40;10.05;;;;;;;14.14;100.00;99931.84;2614947;31;20030;-54
2021/08/26 05:10:52;;;;;;;34.85;15.90;;;;;;;14.27;100.00;99934.41;2614839;36;20027;-58
2021/08/26 05:13:19;;;;;;;27.20;13.23;;;;;;;14.17;100.00;99927.56;2614324;31;20031;-54
2021/08/26 05:15:46;;;;;;;44.47;16.65;;;;;;;14.13;100.00;99927.56;2614132;36;20057;-59
2021/08/26 05:18:14;;;;;;;24.65;10.35;;;;;;;14.41;100.00;99926.66;2614246;31;20037;-56
2021/08/26 05:20:41;;;;;;;27.05;11.07;;;;;;;14.27;100.00;99933.53;2614006;31;20042;-58
2021/08/26 05:23:08;;;;;;;22.48;10.10;;;;;;;14.38;100.00;99920.66;2614684;36;20034;-57
2021/08/26 05:25:35;;;;;;;21.70;9.13;;;;;;;14.42;100.00;99923.25;2631155;36;20042;-55
2021/08/26 05:28:03;;;;;;;23.08;9.35;;;;;;;14.47;100.00;99931.81;2613978;31;20034;-53
2021/08/26 05:30:30;;;;;;;31.15;10.23;;;;;;;14.59;100.00;99922.34;2614961;31;20034;-53
2021/08/26 05:32:57;;;;;;;20.73;9.82;;;;;;;14.67;100.00;99933.50;2615439;31;20469;-57
2021/08/26 05:35:24;;;;;;;18.98;8.63;;;;;;;14.56;100.00;99932.66;2616197;36;20037;-58
2021/08/26 05:37:51;;;;;;;21.42;8.50;;;;;;;14.74;100.00;99935.19;2617526;31;20465;-58
2021/08/26 05:40:18;;;;;;;22.85;9.05;;;;;;;14.69;100.00;99942.91;2612472;31;20042;-56
2021/08/26 05:42:46;;;;;;;24.00;9.10;;;;;;;14.53;100.00;99941.25;2613343;36;20035;-59
2021/08/26 05:45:16;;;;;;;27.35;8.52;;;;;;;14.56;100.00;99938.69;2612698;31;20470;-60
2021/08/26 05:47:44;;;;;;;20.42;8.82;;;;;;;14.66;100.00;99944.69;2614234;36;20030;-55
2021/08/26 05:50:11;;;;;;;25.20;8.45;;;;;;;14.72;100.00;99948.06;2613036;31;20030;-54
2021/08/26 05:52:38;;;;;;;21.15;9.07;;;;;;;14.62;100.00;99941.25;2614096;31;20637;-57
2021/08/26 05:55:06;;;;;;;20.35;8.25;;;;;;;14.53;100.00;99941.25;2613278;31;20026;-56
2021/08/26 05:57:34;;;;;;;29.02;9.10;;;;;;;14.55;100.00;99947.25;2613598;36;20515;-55
2021/08/26 06:00:02;;;;;;;20.75;8.25;;;;;;;14.95;100.00;99950.56;2613857;36;20037;-61
2021/08/26 06:02:29;;;;;;;23.95;8.85;;;;;;;14.92;100.00;99960.03;2613841;31;20105;-58
2021/08/26 06:04:56;;;;;;;18.02;7.85;;;;;;;14.73;100.00;99956.66;2613839;36;20031;-60
2021/08/26 06:07:24;;;;;;;24.27;8.60;;;;;;;14.83;100.00;99966.06;2613573;36;20034;-60
2021/08/26 06:09:51;;;;;;;28.17;8.70;;;;;;;14.85;100.00;99960.94;2613866;36;20030;-56
2021/08/26 06:12:18;;;;;;;22.33;8.38;;;;;;;14.95;100.00;99957.44;2613766;36;20030;-60
2021/08/26 06:14:45;;;;;;;24.80;7.78;;;;;;;14.79;100.00;99954.09;2613851;36;20617;-61
2021/08/26 06:17:12;;;;;;;25.90;8.63;;;;;;;14.65;100.00;99960.97;2613712;36;20057;-60
2021/08/26 06:19:40;;;;;;;24.15;9.10;;;;;;;14.67;100.00;99956.69;2615596;31;20042;-59
2021/08/26 06:22:07;;;;;;;25.63;9.00;;;;;;;14.68;100.00;99963.56;2616277;31;20033;-60
2021/08/26 06:24:34;;;;;;;24.95;8.18;;;;;;;14.97;100.00;99964.31;2615515;36;20034;-58
2021/08/26 06:27:02;;;;;;;18.25;7.32;;;;;;;14.97;100.00;99960.88;2615915;31;20430;-57
2021/08/26 06:29:29;;;;;;;24.88;9.05;;;;;;;14.86;100.00;99952.31;2615233;36;20030;-59
2021/08/26 06:31:56;;;;;;;21.67;9.52;;;;;;;14.85;100.00;99958.34;2616036;31;20058;-57
2021/08/26 06:34:23;;;;;;;23.13;8.65;;;;;;;15.13;100.00;99961.69;2616760;31;20031;-59
2021/08/26 06:36:50;;;;;;;20.60;8.30;;;;;;;14.90;100.00;99965.19;2615984;31;20027;-60
2021/08/26 06:39:18;;;;;;;25.75;9.73;;;;;;;14.90;100.00;99970.34;2615101;36;20578;-56
2021/08/26 06:41:45;;;;;;;26.13;9.63;;;;;;;14.83;100.00;99970.38;2615188;36;20042;-61
2021/08/26 06:44:12;;;;;;;24.90;8.77;;;;;;;15.11;100.00;99984.00;2615174;31;20027;-57
2021/08/26 06:46:39;;;;;;;19.58;8.95;;;;;;;15.17;100.00;99976.28;2615474;36;20026;-58
2021/08/26 06:49:06;;;;;;;25.38;7.82;;;;;;;15.13;100.00;99982.31;2615785;31;20027;-60
2021/08/26 06:51:34;;;;;;;27.60;8.77;;;;;;;15.23;100.00;99981.41;2616036;31;20030;-59
2021/08/26 06:54:01;;;;;;;18.45;7.35;;;;;;;15.40;100.00;99984.75;2614896;31;20030;-58
2021/08/26 06:56:28;;;;;;;19.85;8.18;;;;;;;15.22;100.00;99977.09;2615103;36;20115;-60
2021/08/26 06:58:55;;;;;;;20.88;8.27;;;;;;;15.22;100.00;99980.53;2615634;31;20581;-59
2021/08/26 07:01:22;;;;;;;18.02;7.30;;;;;;;15.27;100.00;99975.38;2614824;31;20156;-60
2021/08/26 07:03:51;;;;;;;24.10;8.57;;;;;;;15.27;100.00;99983.09;2635021;31;20428;-59
2021/08/26 07:06:18;;;;;;;30.05;8.52;;;;;;;15.25;100.00;99983.13;2614798;36;20030;-59
2021/08/26 07:08:45;;;;;;;22.05;8.52;;;;;;;15.63;100.00;99982.03;2615740;31;20027;-59
2021/08/26 07:11:13;;;;;;;25.80;8.10;;;;;;;15.50;100.00;99981.25;2615606;31;20026;-58
2021/08/26 07:13:40;;;;;;;25.60;7.70;;;;;;;15.84;100.00;99975.88;2615173;31;20031;-57
2021/08/26 07:16:10;;;;;;;23.02;7.55;;;;;;;15.93;100.00;99977.56;2615606;31;20031;-60
2021/08/26 07:18:37;;;;;;;16.73;7.20;;;;;;;16.14;100.00;99974.81;2615054;36;20039;-61
2021/08/26 07:21:05;;;;;;;21.38;7.57;;;;;;;16.20;100.00;99979.06;2615176;36;20038;-58
2021/08/26 07:23:33;;;;;;;23.00;7.00;;;;;;;16.82;100.00;99989.66;2615161;36;20030;-60
2021/08/26 07:26:01;;;;;;;21.02;6.85;;;;;;;16.92;100.00;99986.13;2615146;36;20026;-60
2021/08/26 07:28:28;;;;;;;22.58;6.28;;;;;;;16.99;100.00;99983.44;2614655;36;20037;-60
2021/08/26 07:30:55;;;;;;;20.52;6.20;;;;;;;16.81;100.00;99986.22;2615587;36;20462;-58
2021/08/26 07:33:23;;;;;;;21.13;5.25;;;;;;;16.71;100.00;99985.44;2615281;36;20030;-60
2021/08/26 07:35:54;;;;;;;13.57;5.05;;;;;;;17.27;100.00;99983.94;2614367;36;20034;-61
2021/08/26 07:38:22;;;;;;;15.13;4.88;;;;;;;17.59;100.00;99985.22;2614540;36;20037;-59
2021/08/26 07:40:49;;;;;;;14.93;4.85;;;;;;;17.72;100.00;99986.78;2612786;31;20053;-59
2021/08/26 07:43:16;;;;;;;14.40;4.53;;;;;;;17.92;98.41;99988.22;2613891;36;20460;-59
2021/08/26 07:45:44;;;;;;;13.50;5.15;;;;;;;17.80;98.82;100002.25;2616715;36;20697;-61
2021/08/26 07:48:11;;;;;;;11.55;4.50;;;;;;;17.48;99.91;99995.75;2619381;36;20164;-60
2021/08/26 07:50:39;;;;;;;11.15;4.00;;;;;;;17.24;97.56;99991.75;2615575;31;20034;-60
2021/08/26 07:53:06;;;;;;;13.07;4.68;;;;;;;16.85;100.00;99997.41;2614373;36;20042;-60
2021/08/26 07:55:33;;;;;;;11.07;4.00;;;;;;;16.57;100.00;99989.91;2613696;31;20547;-60
2021/08/26 07:58:00;;;;;;;12.52;3.67;;;;;;;17.28;95.65;99989.97;2613951;31;20023;-60
2021/08/26 08:00:28;;;;;;;8.35;3.70;;;;;;;18.45;95.37;99992.53;2615916;31;20034;-59
2021/08/26 08:02:55;;;;;;;10.93;3.65;;;;;;;18.83;92.63;99994.44;2614955;36;20476;-61
2021/08/26 08:05:22;;;;;;;12.13;3.60;;;;;;;18.81;91.69;99988.44;2615325;31;20057;-58
2021/08/26 08:07:58;;;;;;;11.07;3.83;;;;;;;18.71;92.59;99992.06;2616068;31;20246;-61
2021/08/26 08:10:25;;;;;;;6.97;3.00;;;;;;;17.70;94.03;99985.06;2616137;31;20100;-61
2021/08/26 08:12:52;;;;;;;11.10;2.90;;;;;;;16.80;95.72;99987.97;2614990;36;20081;-58
2021/08/26 08:15:19;;;;;;;10.85;2.80;;;;;;;17.01;93.01;99986.88;2614824;36;20039;-60
2021/08/26 08:17:46;;;;;;;12.70;3.88;;;;;;;17.21;91.50;99989.19;2614160;31;20042;-60
2021/08/26 08:20:14;;;;;;;8.45;3.97;;;;;;;18.01;92.40;99995.84;2614779;31;20031;-61
2021/08/26 08:22:41;;;;;;;8.00;3.00;;;;;;;18.61;85.05;99997.44;2614927;36;20057;-60
2021/08/26 08:25:08;;;;;;;7.13;2.38;;;;;;;18.75;81.74;99990.28;2615421;31;20034;-59
2021/08/26 08:27:35;;;;;;;7.68;2.60;;;;;;;18.67;86.68;99992.13;2615339;31;20042;-61
2021/08/26 08:30:04;;;;;;;9.65;2.83;;;;;;;18.74;86.91;99996.34;2615100;36;20046;-60
2021/08/26 08:32:31;;;;;;;7.55;3.08;;;;;;;19.07;87.64;99994.81;2615809;31;20030;-58
2021/08/26 08:34:58;;;;;;;9.73;2.80;;;;;;;18.56;84.52;99994.91;2615483;36;20030;-59
2021/08/26 08:37:25;;;;;;;6.90;2.78;;;;;;;18.28;83.75;99992.81;2612005;31;20026;-60
2021/08/26 08:39:52;;;;;;;11.57;3.60;;;;;;;18.27;88.18;99990.25;2615111;31;20018;-60
2021/08/26 08:42:21;;;;;;;6.22;2.30;;;;;;;18.25;88.57;99989.41;2614776;36;20065;-58
2021/08/26 08:44:50;;;;;;;6.15;2.38;;;;;;;18.02;87.90;99994.97;2618156;31;20037;-59
2021/08/26 08:47:19;;;;;;;7.13;2.90;;;;;;;17.75;91.27;99993.69;2618683;31;20453;-62
2021/08/26 08:49:50;;;;;;;5.57;2.30;;;;;;;19.23;87.30;99991.03;2619876;31;20688;-61
2021/08/26 08:52:18;;;;;;;5.22;2.00;;;;;;;21.45;72.15;100000.22;2620924;31;20879;-60
2021/08/26 08:54:45;;;;;;;5.85;1.73;;;;;;;22.72;66.49;100006.50;2617331;31;20038;-61
2021/08/26 08:57:13;;;;;;;6.03;1.98;;;;;;;21.75;66.72;100004.47;2616409;36;20030;-60
2021/08/26 08:59:49;;;;;;;4.68;1.55;;;;;;;20.06;74.34;99994.41;2612590;36;20570;-60
2021/08/26 09:02:16;;;;;;;6.05;1.75;;;;;;;19.19;81.32;99998.94;2615338;31;20026;-60
2021/08/26 09:04:57;;;;;;;4.78;1.63;;;;;;;18.16;89.43;99992.16;2615347;31;20031;-60
2021/08/26 09:07:32;;;;;;;5.38;1.73;;;;;;;17.75;96.12;99997.13;2614973;31;20026;-59
2021/08/26 09:10:00;;;;;;;5.43;1.80;;;;;;;17.79;96.26;99985.84;2578936;36;2004496;-60
2021/08/26 09:12:49;;;;;;;3.03;1.58;;;;;;;17.65;98.76;99987.72;2614461;31;20027;-61
2021/08/26 09:15:20;;;;;;;4.45;1.60;;;;;;;18.23;95.14;99993.78;2612418;31;20061;-58
2021/08/26 09:18:15;;;;;;;4.60;1.52;;;;;;;18.77;87.77;99984.19;2614052;31;20057;-60
2021/08/26 09:21:04;;;;;;;3.53;1.48;;;;;;;18.36;90.49;99984.91;2578513;36;2004237;-55
2021/08/26 09:23:34;;;;;;;3.75;1.60;;;;;;;18.94;88.04;99989.03;2577903;31;2004594;-60
2021/08/26 09:26:20;;;;;;;5.50;1.92;;;;;;;19.41;77.90;99988.91;2614127;36;20038;-58
2021/08/26 09:28:49;;;;;;;8.25;2.25;;;;;;;20.09;86.46;99989.94;2614532;36;20031;-59
2021/08/26 09:31:20;;;;;;;23.13;2.80;;;;;;;20.19;79.36;99990.56;2614971;31;20042;-61
2021/08/26 09:33:48;;;;;;;7.53;1.88;;;;;;;19.24;82.43;100002.28;2615403;31;20563;-60
2021/08/26 09:36:22;;;;;;;5.43;1.75;;;;;;;18.49;83.84;100007.16;2614520;36;20124;-59
2021/08/26 09:39:00;;;;;;;10.48;2.17;;;;;;;17.12;95.16;100007.44;2615232;36;20046;-57
2021/08/26 09:41:49;;;;;;;2.55;0.93;;;;;;;16.18;98.33;100001.47;2615497;36;20038;-61
2021/08/26 09:44:30;;;;;;;2.92;0.65;;;;;;;16.04;96.67;100002.44;2579583;31;2005106;-61
2021/08/26 09:47:05;;;;;;;2.13;0.80;;;;;;;15.58;100.00;99999.28;2615927;31;20030;-60
2021/08/26 09:49:41;;;;;;;1.40;0.63;;;;;;;15.77;100.00;99995.75;2579580;31;2004573;-61
2021/08/26 09:52:13;;;;;;;2.03;0.57;;;;;;;16.13;100.00;100004.09;2615554;36;20034;-61
2021/08/26 09:54:50;;;;;;;1.40;0.70;;;;;;;17.02;98.43;99998.91;2615410;31;20026;-61
2021/08/26 09:57:23;;;;;;;1.75;0.50;;;;;;;18.48;93.67;100009.75;2616052;31;20113;-60
2021/08/26 09:59:57;;;;;;;1.42;0.50;;;;;;;17.49;93.01;100006.97;2613173;36;20030;-60
2021/08/26 10:02:27;;;;;;;2.00;0.80;;;;;;;19.46;84.07;100016.53;2616003;31;20042;-58
2021/08/26 10:04:56;;;;;;;1.25;0.60;;;;;;;23.84;63.81;100024.13;2613969;36;20159;-61
2021/08/26 10:07:27;;;;;;;3.63;0.75;;;;;;;24.74;64.17;100027.41;2614572;36;20747;-59
2021/08/26 10:09:54;;;;;;;1.77;0.57;;;;;;;24.39;62.13;100017.50;2615076;36;20038;-60
2021/08/26 10:12:22;;;;;;;1.05;0.52;;;;;;;22.46;66.39;100018.69;2615963;31;20034;-62
2021/08/26 10:14:52;;;;;;;2.70;0.70;;;;;;;24.57;61.15;100017.66;2615461;36;20590;-55
2021/08/26 10:17:20;;;;;;;3.17;1.00;;;;;;;27.62;56.05;100022.81;2615590;31;20030;-59
2021/08/26 10:19:49;;;;;;;1.55;0.98;;;;;;;28.50;49.32;100021.31;2615167;36;20042;-58
2021/08/26 10:22:16;;;;;;;5.10;1.10;;;;;;;25.27;58.07;100011.94;2615304;36;20030;-59
2021/08/26 10:24:44;;;;;;;3.88;1.38;;;;;;;24.89;58.87;100014.47;2615312;36;20046;-60
2021/08/26 10:27:14;;;;;;;3.30;0.85;;;;;;;23.01;63.21;100014.16;2616767;31;20030;-59
2021/08/26 10:29:46;;;;;;;2.53;0.88;;;;;;;22.73;61.68;100010.81;2615478;36;20593;-60
2021/08/26 10:32:25;;;;;;;4.75;1.20;;;;;;;21.49;71.49;100005.28;2615388;36;20033;-61
2021/08/26 10:35:11;;;;;;;5.45;1.30;;;;;;;22.47;70.69;100007.38;2614726;36;20034;-62
2021/08/26 10:37:45;;;;;;;3.03;0.98;;;;;;;23.41;65.62;99996.16;2579179;31;2004570;-57
2021/08/26 10:40:33;;;;;;;2.50;0.70;;;;;;;22.42;63.04;100001.47;2615359;36;20026;-61
2021/08/26 10:43:01;;;;;;;4.20;1.13;;;;;;;21.03;68.39;100006.59;2579439;31;2004370;-62
2021/08/26 10:45:47;;;;;;;2.50;0.70;;;;;;;20.89;66.18;100002.66;2615799;31;20053;-60
2021/08/26 10:48:17;;;;;;;3.85;0.90;;;;;;;19.69;72.93;100005.66;2615737;31;20026;-61
2021/08/26 10:50:46;;;;;;;2.35;1.20;;;;;;;19.12;77.57;100007.72;2616095;31;20065;-61
2021/08/26 10:53:20;;;;;;;3.42;0.93;;;;;;;19.31;75.80;100007.28;2614828;36;20034;-61
2021/08/26 10:55:53;;;;;;;5.10;1.10;;;;;;;18.98;80.42;100008.00;2614893;36;20034;-60
2021/08/26 10:58:23;;;;;;;5.25;1.20;;;;;;;18.35;83.06;100009.13;2614970;36;20038;-58
2021/08/26 11:01:04;;;;;;;2.72;1.23;;;;;;;18.15;85.34;100006.00;2616201;31;20030;-59
2021/08/26 11:03:35;;;;;;;4.72;1.20;;;;;;;17.83;87.15;100007.34;2579597;31;2005570;-60
2021/08/26 11:06:21;;;;;;;3.25;1.40;;;;;;;17.24;90.24;99996.06;2615115;36;20030;-60
2021/08/26 11:08:52;;;;;;;2.95;1.05;;;;;;;17.20;92.99;99992.66;2615437;31;20055;-57
2021/08/26 11:13:59;;;;;;;2.60;1.00;;;;;;;18.47;86.02;99998.53;2615574;31;20038;-59
2021/08/26 11:16:26;;;;;;;1.85;0.73;;;;;;;19.33;77.82;100009.88;2615275;36;20019;-61
2021/08/26 11:19:12;;;;;;;3.92;0.95;;;;;;;19.58;77.23;100002.38;2615489;31;20073;-61
2021/08/26 11:21:45;;;;;;;1.83;0.77;;;;;;;20.48;70.00;100009.84;2579196;36;2004442;-61
2021/08/26 11:24:12;;;;;;;5.90;0.80;;;;;;;21.69;66.94;100009.03;2615222;36;20030;-61
2021/08/26 11:26:55;;;;;;;1.98;0.50;;;;;;;23.52;58.52;100015.75;2615141;36;20061;-60
2021/08/26 11:29:25;;;;;;;0.77;0.50;;;;;;;24.07;54.48;100021.44;2615721;31;20539;-57
2021/08/26 11:31:55;;;;;;;1.42;0.47;;;;;;;23.30;57.60;100030.56;2620250;31;20531;-58
2021/08/26 11:34:44;;;;;;;1.40;0.60;;;;;;;22.94;57.70;100020.53;2617718;36;20038;-61
2021/08/26 11:37:18;;;;;;;1.55;0.52;;;;;;;22.27;59.23;100015.00;2579006;36;2004376;-57